Oxford, Georgia
Current Conditions -  °F | °C
As of 2:15 PM on Sunday 23 Nov 2014 (Local Time) from KCVC Reporting Station
Drizzle Drizzle  
Wind Chill: 54°   Ceiling: 400
Heat Index: 54°   Visibility: 2mi
Dew Point: 54°   Wind: 9mph
Humidity: 100%   Direction: 70°ENE
Pressure: 29.81"   Gusts: NA
Location:  33.62°N, 83.87°W
Report Text: KCVC 231915Z AUTO 07008KT 2SM DZ OVC004 12/12 A2981 RMK AO2
Loading
Personal Weather Stations






























Interactive Weather Map New forecast layout! Learn more

10-Day Weather Forecast

Advertisements
Track Severe Weather on mobile